Latest Weather Observations for West Roebuck

IDW60801

Issued at 8:32 am WST Wednesday 29 July 2015 (issued every 30 minutes, with the page automatically refreshed every 10 minutes)

About weather observations | Map of weather stations | Latest weather observations for WA | Other Formats
Station Details ID: 003096 Name: WEST ROEBUCK Lat: -17.90 Lon: 122.31 Height: 32.0 m
Data from the previous 72 hours. | See also: Recent months for locations in Western Australia
Date/Time
WST
Temp
°C
App
Temp
°C
Dew
Point
Rel
Hum
%
Delta-T
°C
Wind Press
QNH
hPa
Press
MSL
hPa
Rain
since 9 am
mm
Dir
 
Spd
km/h
Gust
km/h
Spd
kts
Gust
kts
29/08:30am 25.7 - - - - ENE 20 32 11 17 - - 0.0
29/08:00am 23.9 - - - - E 17 28 9 15 - - 0.0
29/07:30am 21.2 - - - - ENE 13 20 7 11 - - 0.0
29/07:00am 18.9 - - - - ENE 13 19 7 10 - - 0.0
29/06:30am 17.4 - - - - ENE 13 17 7 9 - - 0.0
29/06:00am 16.6 - - - - ENE 11 13 6 7 - - 0.0
29/05:30am 16.1 - - - - ENE 11 13 6 7 - - 0.0
29/05:00am 15.8 - - - - ENE 11 13 6 7 - - 0.0
29/04:30am 15.6 - - - - E 11 13 6 7 - - 0.0
29/04:00am 16.3 - - - - E 9 13 5 7 - - 0.0
29/03:30am 16.4 - - - - E 7 9 4 5 - - 0.0
29/03:00am 17.2 - - - - CALM 0 0 0 0 - - 0.0
29/02:30am 17.0 - - - - N 4 7 2 4 - - 0.0
29/02:00am 17.2 - - - - N 2 9 1 5 - - 0.0
29/01:30am 18.9 - - - - CALM 0 0 0 0 - - 0.0
29/01:00am 18.4 - - - - WNW 7 9 4 5 - - 0.0
29/12:30am 18.5 - - - - WNW 9 11 5 6 - - 0.0
29/12:00am 17.6 - - - - WNW 9 9 5 5 - - 0.0
 
Date/Time
WST
Temp
°C
App
Temp
°C
Dew
Point
Rel
Hum
%
Delta-T
°C
Wind Press
QNH
hPa
Press
MSL
hPa
Rain
since 9 am
mm
Dir
 
Spd
km/h
Gust
km/h
Spd
kts
Gust
kts
28/11:30pm 18.3 - - - - W 6 9 3 5 - - 0.0
28/11:00pm 18.7 - - - - W 7 9 4 5 - - 0.0
28/10:30pm 18.4 - - - - W 9 11 5 6 - - 0.0
28/10:00pm 19.1 - - - - WNW 9 9 5 5 - - 0.0
28/09:30pm 19.1 - - - - W 2 9 1 5 - - 0.0
28/09:00pm 19.9 - - - - NW 6 9 3 5 - - 0.0
28/08:30pm 20.8 - - - - NW 7 9 4 5 - - 0.0
28/08:00pm 20.6 - - - - NW 9 11 5 6 - - 0.0
28/07:30pm 22.1 - - - - NW 11 13 6 7 - - 0.0
28/07:00pm 23.1 - - - - NW 9 13 5 7 - - 0.0
28/06:30pm 24.3 - - - - NNW 9 11 5 6 - - 0.0
28/06:00pm 26.5 - - - - NW 11 13 6 7 - - 0.0
28/05:30pm 29.2 - - - - NNW 11 15 6 8 - - 0.0
28/05:00pm 32.8 - - - - E 13 19 7 10 - - 0.0
28/04:30pm 33.9 - - - - ENE 13 24 7 13 - - 0.0
28/04:00pm 34.7 - - - - NE 11 19 6 10 - - 0.0
28/03:30pm 35.0 - - - - NE 11 20 6 11 - - 0.0
28/03:00pm 35.0 - - - - ESE 9 22 5 12 - - 0.0
28/02:30pm 34.9 - - - - NE 13 22 7 12 - - 0.0
28/02:00pm 35.3 - - - - NE 17 30 9 16 - - 0.0
28/01:30pm 35.6 - - - - NNE 17 26 9 14 - - 0.0
28/01:00pm 35.3 - - - - NNE 19 32 10 17 - - 0.0
28/12:30pm 34.2 - - - - NE 17 33 9 18 - - 0.0
28/12:00pm 34.0 - - - - NE 17 28 9 15 - - 0.0
28/11:30am 33.9 - - - - NE 15 24 8 13 - - 0.0
28/11:00am 32.6 - - - - NE 19 28 10 15 - - 0.0
28/10:30am 32.0 - - - - E 20 37 11 20 - - 0.0
28/10:00am 31.1 - - - - E 20 35 11 19 - - 0.0
28/09:30am 29.6 - - - - E 22 43 12 23 - - 0.0
28/09:00am 28.7 - - - - E 24 43 13 23 - - 0.0
28/08:30am 27.3 - - - - ENE 24 37 13 20 - - 0.0
28/08:00am 25.9 - - - - E 26 41 14 22 - - 0.0
28/07:30am 24.3 - - - - E 24 43 13 23 - - 0.0
28/07:00am 22.6 - - - - E 17 28 9 15 - - 0.0
28/06:30am 21.8 - - - - E 19 26 10 14 - - 0.0
28/06:00am 21.9 - - - - E 19 24 10 13 - - 0.0
28/05:30am 21.8 - - - - E 17 24 9 13 - - 0.0
28/05:00am 22.2 - - - - E 17 22 9 12 - - 0.0
28/04:30am 21.8 - - - - E 15 20 8 11 - - 0.0
28/04:00am 20.8 - - - - E 15 22 8 12 - - 0.0
28/03:30am 17.2 - - - - E 11 15 6 8 - - 0.0
28/03:00am 17.2 - - - - E 9 11 5 6 - - 0.0
28/02:30am 17.5 - - - - ESE 11 13 6 7 - - 0.0
28/02:00am 17.4 - - - - ESE 11 13 6 7 - - 0.0
28/01:30am 17.7 - - - - ESE 11 13 6 7 - - 0.0
28/01:00am 18.6 - - - - SE 9 11 5 6 - - 0.0
28/12:30am 19.2 - - - - SE 9 11 5 6 - - 0.0
28/12:00am 20.1 - - - - ESE 9 13 5 7 - - 0.0
 
Date/Time
WST
Temp
°C
App
Temp
°C
Dew
Point
Rel
Hum
%
Delta-T
°C
Wind Press
QNH
hPa
Press
MSL
hPa
Rain
since 9 am
mm
Dir
 
Spd
km/h
Gust
km/h
Spd
kts
Gust
kts
27/11:30pm 20.9 - - - - SE 11 13 6 7 - - 0.0
27/11:00pm 20.8 - - - - SE 11 13 6 7 - - 0.0
27/10:30pm 21.1 - - - - SE 9 11 5 6 - - 0.0
27/10:00pm 22.4 - - - - SE 9 15 5 8 - - 0.0
27/09:30pm 22.5 - - - - ESE 11 15 6 8 - - 0.0
27/09:00pm 22.0 - - - - E 9 13 5 7 - - 0.0
27/08:30pm 23.0 - - - - ESE 9 13 5 7 - - 0.0
27/08:00pm 23.7 - - - - ESE 9 11 5 6 - - 0.0
27/07:30pm 25.0 - - - - SE 9 13 5 7 - - 0.0
27/07:00pm 25.7 - - - - SE 9 11 5 6 - - 0.0
27/06:30pm 26.8 - - - - SE 11 13 6 7 - - 0.0
27/06:00pm 27.7 - - - - SE 9 11 5 6 - - 0.0
27/05:30pm 30.3 - - - - SE 9 13 5 7 - - 0.0
27/05:00pm 32.2 - - - - SE 13 20 7 11 - - 0.0
27/04:30pm 33.0 - - - - SE 17 28 9 15 - - 0.0
27/04:00pm 33.4 - - - - SE 17 28 9 15 - - 0.0
27/03:30pm 34.1 - - - - SE 17 32 9 17 - - 0.0
27/03:00pm 33.8 - - - - ESE 20 28 11 15 - - 0.0
27/02:30pm 34.3 - - - - ESE 19 33 10 18 - - 0.0
27/02:00pm 33.8 - - - - ESE 20 32 11 17 - - 0.0
27/01:30pm 33.6 - - - - ESE 20 35 11 19 - - 0.0
27/01:00pm 33.5 - - - - ESE 20 35 11 19 - - 0.0
27/12:30pm 32.3 - - - - ESE 20 32 11 17 - - 0.0
27/12:00pm 31.6 - - - - E 24 41 13 22 - - 0.0
27/11:30am 31.9 - - - - E 24 37 13 20 - - 0.0
27/11:00am 30.1 - - - - E 24 39 13 21 - - 0.0
27/10:30am 29.1 - - - - E 28 44 15 24 - - 0.0
27/10:00am 28.4 - - - - E 22 37 12 20 - - 0.0
27/09:30am 26.6 - - - - E 26 43 14 23 - - 0.0
27/09:00am 25.4 - - - - E 28 43 15 23 - - 0.0
27/08:30am 24.3 - - - - E 28 46 15 25 - - 0.0
27/08:27am 24.3 - - - - E 28 46 15 25 - - 0.0
27/08:00am 23.1 - - - - E 22 32 12 17 - - 0.0
27/07:30am 20.9 - - - - E 15 20 8 11 - - 0.0
27/07:00am 17.7 - - - - E 13 17 7 9 - - 0.0
27/06:30am 15.4 - - - - E 9 11 5 6 - - 0.0
27/06:00am 16.7 - - - - ESE 9 11 5 6 - - 0.0
27/05:30am 17.5 - - - - ESE 9 13 5 7 - - 0.0
27/05:00am 18.1 - - - - ESE 13 17 7 9 - - 0.0
27/04:30am 19.0 - - - - ESE 13 17 7 9 - - 0.0
27/04:00am 19.4 - - - - ESE 15 20 8 11 - - 0.0
27/03:30am 19.1 - - - - ESE 13 19 7 10 - - 0.0
27/03:00am 19.1 - - - - ESE 11 15 6 8 - - 0.0
27/02:30am 19.7 - - - - ESE 13 17 7 9 - - 0.0
27/02:00am 20.1 - - - - ESE 13 19 7 10 - - 0.0
27/01:30am 20.5 - - - - SE 15 22 8 12 - - 0.0
27/01:00am 20.6 - - - - ESE 13 19 7 10 - - 0.0
27/12:30am 21.2 - - - - SE 15 22 8 12 - - 0.0
27/12:00am 22.0 - - - - SE 15 24 8 13 - - 0.0
 
Date/Time
WST
Temp
°C
App
Temp
°C
Dew
Point
Rel
Hum
%
Delta-T
°C
Wind Press
QNH
hPa
Press
MSL
hPa
Rain
since 9 am
mm
Dir
 
Spd
km/h
Gust
km/h
Spd
kts
Gust
kts
26/11:30pm 22.4 - - - - SE 17 28 9 15 - - 0.0
26/11:00pm 22.5 - - - - SE 17 26 9 14 - - 0.0
26/10:30pm 22.5 - - - - SE 15 24 8 13 - - 0.0
26/10:00pm 22.7 - - - - SE 15 24 8 13 - - 0.0
26/09:30pm 22.1 - - - - SE 13 15 7 8 - - 0.0
26/09:00pm 22.3 - - - - SE 11 17 6 9 - - 0.0
26/08:30pm 22.6 - - - - SE 11 13 6 7 - - 0.0
26/08:00pm 22.4 - - - - SE 11 13 6 7 - - 0.0
26/07:30pm 22.8 - - - - SE 11 13 6 7 - - 0.0
26/07:00pm 24.0 - - - - SE 11 13 6 7 - - 0.0
26/06:30pm 25.1 - - - - SE 9 13 5 7 - - 0.0
26/06:00pm 27.2 - - - - SSE 11 13 6 7 - - 0.0
26/05:30pm 29.3 - - - - SSE 13 20 7 11 - - 0.0
26/05:00pm 31.0 - - - - SSE 17 26 9 14 - - 0.0
26/04:30pm 31.9 - - - - SSE 17 26 9 14 - - 0.0
26/04:00pm 32.3 - - - - SSE 19 28 10 15 - - 0.0
26/03:30pm 33.0 - - - - SSE 22 33 12 18 - - 0.0
26/03:00pm 33.0 - - - - SSE 22 33 12 18 - - 0.0
26/02:30pm 33.0 - - - - SSE 19 28 10 15 - - 0.0
26/02:00pm 32.7 - - - - SSE 20 32 11 17 - - 0.0
26/01:30pm 32.5 - - - - SSE 20 33 11 18 - - 0.0
26/01:00pm 32.0 - - - - SE 24 33 13 18 - - 0.0
26/12:30pm 31.0 - - - - SSE 20 33 11 18 - - 0.0
26/12:00pm 31.0 - - - - ESE 22 33 12 18 - - 0.0
26/11:30am 29.4 - - - - ESE 24 37 13 20 - - 0.0
26/11:00am 29.5 - - - - E 24 39 13 21 - - 0.0
26/10:30am 27.8 - - - - E 26 41 14 22 - - 0.0
26/10:19am 27.2 - - - - E 28 48 15 26 - - 0.0
26/10:00am 26.7 - - - - ESE 24 37 13 20 - - 0.0
26/09:30am 25.5 - - - - ESE 26 39 14 21 - - 0.0
26/09:00am 24.3 - - - - E 24 37 13 20 - - 0.0

Other Formats:

Comma delimited format used in spreadsheet applications
http://www.bom.gov.au/fwo/IDW60801/IDW60801.95204.axf

JavaScript Object Notation format (JSON) in row-major order
http://www.bom.gov.au/fwo/IDW60801/IDW60801.95204.json